sensor_id;sensor_type;location;lat;lon;timestamp;pressure;altitude;pressure_sealevel;temperature;humidity
23643;BME280;11998;55.788;37.572;2023-01-15T00:00:08;99740.09;;;-1.50;100.00
23643;BME280;11998;55.788;37.572;2023-01-15T00:01:29;99739.47;;;-1.42;100.00
23643;BME280;11998;55.788;37.572;2023-01-15T00:02:30;99737.75;;;-1.42;100.00
23643;BME280;11998;55.788;37.572;2023-01-15T00:03:31;99751.75;;;-1.37;100.00
23643;BME280;11998;55.788;37.572;2023-01-15T00:04:31;99747.34;;;-1.39;100.00
23643;BME280;11998;55.788;37.572;2023-01-15T00:05:35;99742.38;;;-1.32;100.00
23643;BME280;11998;55.788;37.572;2023-01-15T00:06:38;99747.59;;;-1.32;100.00
23643;BME280;11998;55.788;37.572;2023-01-15T00:07:39;99764.53;;;-1.44;100.00
23643;BME280;11998;55.788;37.572;2023-01-15T00:08:40;99754.22;;;-1.41;100.00
23643;BME280;11998;55.788;37.572;2023-01-15T00:09:40;99755.97;;;-1.40;100.00
23643;BME280;11998;55.788;37.572;2023-01-15T00:10:41;99750.09;;;-1.35;100.00
23643;BME280;11998;55.788;37.572;2023-01-15T00:11:41;99753.94;;;-1.51;100.00
23643;BME280;11998;55.788;37.572;2023-01-15T00:12:42;99744.72;;;-1.41;100.00
23643;BME280;11998;55.788;37.572;2023-01-15T00:13:43;99741.16;;;-1.44;100.00
23643;BME280;11998;55.788;37.572;2023-01-15T00:14:44;99755.00;;;-1.44;100.00
23643;BME280;11998;55.788;37.572;2023-01-15T00:15:45;99731.59;;;-1.45;100.00
23643;BME280;11998;55.788;37.572;2023-01-15T00:16:49;99744.41;;;-1.50;100.00
23643;BME280;11998;55.788;37.572;2023-01-15T00:17:50;99756.47;;;-1.52;100.00
23643;BME280;11998;55.788;37.572;2023-01-15T00:19:51;99754.72;;;-1.53;100.00
23643;BME280;11998;55.788;37.572;2023-01-15T00:20:58;99744.50;;;-1.49;100.00
23643;BME280;11998;55.788;37.572;2023-01-15T00:21:59;99749.81;;;-1.44;100.00
23643;BME280;11998;55.788;37.572;2023-01-15T00:22:59;99735.28;;;-1.37;100.00
23643;BME280;11998;55.788;37.572;2023-01-15T00:24:00;99745.00;;;-1.32;100.00
23643;BME280;11998;55.788;37.572;2023-01-15T00:25:19;99755.06;;;-1.42;100.00
23643;BME280;11998;55.788;37.572;2023-01-15T00:26:38;99746.34;;;-1.44;100.00
23643;BME280;11998;55.788;37.572;2023-01-15T00:27:57;99741.31;;;-1.38;100.00
23643;BME280;11998;55.788;37.572;2023-01-15T00:28:58;99739.72;;;-1.35;100.00
23643;BME280;11998;55.788;37.572;2023-01-15T00:29:58;99745.88;;;-1.31;100.00
23643;BME280;11998;55.788;37.572;2023-01-15T00:30:59;99741.97;;;-1.45;100.00
23643;BME280;11998;55.788;37.572;2023-01-15T00:32:03;99731.88;;;-1.36;100.00
23643;BME280;11998;55.788;37.572;2023-01-15T00:33:04;99733.41;;;-1.43;100.00
23643;BME280;11998;55.788;37.572;2023-01-15T00:34:04;99731.88;;;-1.36;100.00
23643;BME280;11998;55.788;37.572;2023-01-15T00:35:05;99739.66;;;-1.36;100.00
23643;BME280;11998;55.788;37.572;2023-01-15T00:36:06;99735.03;;;-1.46;100.00
23643;BME280;11998;55.788;37.572;2023-01-15T00:37:07;99735.09;;;-1.43;100.00
23643;BME280;11998;55.788;37.572;2023-01-15T00:38:07;99737.59;;;-1.48;100.00
23643;BME280;11998;55.788;37.572;2023-01-15T00:39:08;99732.38;;;-1.48;100.00
23643;BME280;11998;55.788;37.572;2023-01-15T00:40:09;99730.59;;;-1.49;100.00
23643;BME280;11998;55.788;37.572;2023-01-15T00:41:10;99725.22;;;-1.55;100.00
23643;BME280;11998;55.788;37.572;2023-01-15T00:42:11;99732.28;;;-1.51;100.00
23643;BME280;11998;55.788;37.572;2023-01-15T00:43:12;99719.59;;;-1.40;100.00
23643;BME280;11998;55.788;37.572;2023-01-15T00:44:12;99727.97;;;-1.51;100.00
23643;BME280;11998;55.788;37.572;2023-01-15T00:45:13;99724.47;;;-1.51;100.00
23643;BME280;11998;55.788;37.572;2023-01-15T00:46:14;99722.69;;;-1.54;100.00
23643;BME280;11998;55.788;37.572;2023-01-15T00:47:14;99730.44;;;-1.55;100.00
23643;BME280;11998;55.788;37.572;2023-01-15T00:48:15;99712.56;;;-1.44;100.00
23643;BME280;11998;55.788;37.572;2023-01-15T00:49:16;99713.63;;;-1.38;100.00
23643;BME280;11998;55.788;37.572;2023-01-15T00:50:17;99726.47;;;-1.42;100.00
23643;BME280;11998;55.788;37.572;2023-01-15T00:51:17;99715.44;;;-1.35;100.00
23643;BME280;11998;55.788;37.572;2023-01-15T00:52:18;99711.09;;;-1.36;100.00
23643;BME280;11998;55.788;37.572;2023-01-15T00:53:18;99708.22;;;-1.45;100.00
23643;BME280;11998;55.788;37.572;2023-01-15T00:54:19;99722.16;;;-1.42;100.00
23643;BME280;11998;55.788;37.572;2023-01-15T00:55:19;99702.97;;;-1.47;100.00
23643;BME280;11998;55.788;37.572;2023-01-15T00:56:20;99702.09;;;-1.48;100.00
23643;BME280;11998;55.788;37.572;2023-01-15T00:57:21;99699.66;;;-1.41;100.00
23643;BME280;11998;55.788;37.572;2023-01-15T00:58:22;99703.34;;;-1.35;100.00
23643;BME280;11998;55.788;37.572;2023-01-15T00:59:22;99707.47;;;-1.41;100.00
23643;BME280;11998;55.788;37.572;2023-01-15T01:00:23;99711.03;;;-1.38;100.00
23643;BME280;11998;55.788;37.572;2023-01-15T01:01:24;99697.06;;;-1.41;100.00
23643;BME280;11998;55.788;37.572;2023-01-15T01:02:24;99702.25;;;-1.41;100.00
23643;BME280;11998;55.788;37.572;2023-01-15T01:03:26;99689.16;;;-1.46;100.00
23643;BME280;11998;55.788;37.572;2023-01-15T01:04:26;99708.34;;;-1.41;100.00
23643;BME280;11998;55.788;37.572;2023-01-15T01:05:27;99708.41;;;-1.38;100.00
23643;BME280;11998;55.788;37.572;2023-01-15T01:06:27;99707.50;;;-1.40;100.00
23643;BME280;11998;55.788;37.572;2023-01-15T01:07:28;99699.31;;;-1.54;100.00
23643;BME280;11998;55.788;37.572;2023-01-15T01:08:29;99701.91;;;-1.54;100.00
23643;BME280;11998;55.788;37.572;2023-01-15T01:09:29;99717.69;;;-1.48;100.00
23643;BME280;11998;55.788;37.572;2023-01-15T01:10:30;99712.38;;;-1.51;100.00
23643;BME280;11998;55.788;37.572;2023-01-15T01:11:31;99704.78;;;-1.44;100.00
23643;BME280;11998;55.788;37.572;2023-01-15T01:12:33;99708.13;;;-1.49;100.00
23643;BME280;11998;55.788;37.572;2023-01-15T01:13:35;99716.88;;;-1.45;100.00
23643;BME280;11998;55.788;37.572;2023-01-15T01:14:36;99693.63;;;-1.40;100.00
23643;BME280;11998;55.788;37.572;2023-01-15T01:15:37;99698.78;;;-1.42;100.00
23643;BME280;11998;55.788;37.572;2023-01-15T01:16:40;99700.59;;;-1.39;100.00
23643;BME280;11998;55.788;37.572;2023-01-15T01:17:41;99709.31;;;-1.37;100.00
23643;BME280;11998;55.788;37.572;2023-01-15T01:18:41;99700.53;;;-1.41;100.00
23643;BME280;11998;55.788;37.572;2023-01-15T01:19:42;99720.50;;;-1.40;100.00
23643;BME280;11998;55.788;37.572;2023-01-15T01:20:43;99711.81;;;-1.40;100.00
23643;BME280;11998;55.788;37.572;2023-01-15T01:21:44;99712.25;;;-1.25;100.00
23643;BME280;11998;55.788;37.572;2023-01-15T01:22:47;99702.69;;;-1.26;100.00
23643;BME280;11998;55.788;37.572;2023-01-15T01:23:48;99712.09;;;-1.31;100.00
23643;BME280;11998;55.788;37.572;2023-01-15T01:24:48;99707.75;;;-1.32;100.00
23643;BME280;11998;55.788;37.572;2023-01-15T01:25:49;99720.72;;;-1.32;100.00
23643;BME280;11998;55.788;37.572;2023-01-15T01:26:50;99712.66;;;-1.41;100.00
23643;BME280;11998;55.788;37.572;2023-01-15T01:27:50;99705.66;;;-1.44;100.00
23643;BME280;11998;55.788;37.572;2023-01-15T01:28:52;99706.41;;;-1.48;100.00
23643;BME280;11998;55.788;37.572;2023-01-15T01:29:53;99708.38;;;-1.39;100.00
23643;BME280;11998;55.788;37.572;2023-01-15T01:30:53;99701.44;;;-1.40;100.00
23643;BME280;11998;55.788;37.572;2023-01-15T01:31:54;99697.19;;;-1.37;100.00
23643;BME280;11998;55.788;37.572;2023-01-15T01:32:54;99690.47;;;-1.30;100.00
23643;BME280;11998;55.788;37.572;2023-01-15T01:33:57;99696.28;;;-1.39;100.00
23643;BME280;11998;55.788;37.572;2023-01-15T01:34:58;99698.91;;;-1.37;100.00
23643;BME280;11998;55.788;37.572;2023-01-15T01:35:58;99689.31;;;-1.40;100.00
23643;BME280;11998;55.788;37.572;2023-01-15T01:36:59;99693.72;;;-1.37;100.00
23643;BME280;11998;55.788;37.572;2023-01-15T01:37:59;99695.22;;;-1.45;100.00
23643;BME280;11998;55.788;37.572;2023-01-15T01:39:00;99700.22;;;-1.52;100.00
23643;BME280;11998;55.788;37.572;2023-01-15T01:40:02;99703.50;;;-1.59;100.00
23643;BME280;11998;55.788;37.572;2023-01-15T01:41:03;99697.00;;;-1.44;100.00
23643;BME280;11998;55.788;37.572;2023-01-15T01:42:10;99691.03;;;-1.40;100.00
23643;BME280;11998;55.788;37.572;2023-01-15T01:43:20;99696.16;;;-1.43;100.00
23643;BME280;11998;55.788;37.572;2023-01-15T01:45:36;99688.25;;;-1.48;100.00
23643;BME280;11998;55.788;37.572;2023-01-15T01:46:37;99694.16;;;-1.52;100.00
23643;BME280;11998;55.788;37.572;2023-01-15T01:47:38;99708.19;;;-1.47;100.00
23643;BME280;11998;55.788;37.572;2023-01-15T01:48:39;99705.53;;;-1.49;100.00
23643;BME280;11998;55.788;37.572;2023-01-15T01:49:41;99702.75;;;-1.55;100.00
23643;BME280;11998;55.788;37.572;2023-01-15T01:50:44;99710.44;;;-1.58;100.00
23643;BME280;11998;55.788;37.572;2023-01-15T01:51:49;99698.31;;;-1.59;100.00
23643;BME280;11998;55.788;37.572;2023-01-15T01:52:55;99709.91;;;-1.48;100.00
23643;BME280;11998;55.788;37.572;2023-01-15T01:53:58;99709.91;;;-1.48;100.00
23643;BME280;11998;55.788;37.572;2023-01-15T01:55:00;99704.47;;;-1.55;100.00
23643;BME280;11998;55.788;37.572;2023-01-15T01:56:02;99706.22;;;-1.54;100.00
23643;BME280;11998;55.788;37.572;2023-01-15T01:57:03;99715.81;;;-1.52;100.00
23643;BME280;11998;55.788;37.572;2023-01-15T01:58:07;99708.78;;;-1.56;100.00
23643;BME280;11998;55.788;37.572;2023-01-15T01:59:09;99696.78;;;-1.51;100.00
23643;BME280;11998;55.788;37.572;2023-01-15T02:00:10;99697.91;;;-1.42;100.00
23643;BME280;11998;55.788;37.572;2023-01-15T02:01:11;99701.47;;;-1.39;100.00
23643;BME280;11998;55.788;37.572;2023-01-15T02:02:13;99698.16;;;-1.35;100.00
23643;BME280;11998;55.788;37.572;2023-01-15T02:03:16;99700.50;;;-1.42;100.00
23643;BME280;11998;55.788;37.572;2023-01-15T02:04:19;99691.88;;;-1.41;100.00
23643;BME280;11998;55.788;37.572;2023-01-15T02:05:30;99703.09;;;-1.42;100.00
23643;BME280;11998;55.788;37.572;2023-01-15T02:06:31;99696.91;;;-1.48;100.00
23643;BME280;11998;55.788;37.572;2023-01-15T02:07:32;99696.47;;;-1.33;100.00
23643;BME280;11998;55.788;37.572;2023-01-15T02:08:34;99699.59;;;-1.44;100.00
23643;BME280;11998;55.788;37.572;2023-01-15T02:09:38;99710.72;;;-1.49;100.00
23643;BME280;11998;55.788;37.572;2023-01-15T02:10:39;99694.22;;;-1.49;100.00
23643;BME280;11998;55.788;37.572;2023-01-15T02:11:40;99702.97;;;-1.47;100.00
23643;BME280;11998;55.788;37.572;2023-01-15T02:12:44;99688.28;;;-1.46;100.00
23643;BME280;11998;55.788;37.572;2023-01-15T02:15:09;99685.31;;;-1.59;100.00
23643;BME280;11998;55.788;37.572;2023-01-15T02:17:29;99690.69;;;-1.53;100.00
23643;BME280;11998;55.788;37.572;2023-01-15T02:24:06;99693.34;;;-1.50;100.00
23643;BME280;11998;55.788;37.572;2023-01-15T02:25:17;99705.94;;;-1.63;100.00
23643;BME280;11998;55.788;37.572;2023-01-15T02:27:28;99704.97;;;-1.67;100.00
23643;BME280;11998;55.788;37.572;2023-01-15T02:28:32;99692.75;;;-1.71;100.00
23643;BME280;11998;55.788;37.572;2023-01-15T02:30:54;99684.28;;;-1.64;100.00
23643;BME280;11998;55.788;37.572;2023-01-15T02:31:58;99687.72;;;-1.65;100.00
23643;BME280;11998;55.788;37.572;2023-01-15T02:33:06;99677.41;;;-1.62;100.00
23643;BME280;11998;55.788;37.572;2023-01-15T02:34:16;99684.66;;;-1.52;100.00
23643;BME280;11998;55.788;37.572;2023-01-15T02:35:33;99692.47;;;-1.50;100.00
23643;BME280;11998;55.788;37.572;2023-01-15T02:36:39;99685.69;;;-1.46;100.00
23643;BME280;11998;55.788;37.572;2023-01-15T02:37:46;99692.41;;;-1.53;100.00
23643;BME280;11998;55.788;37.572;2023-01-15T02:38:50;99698.38;;;-1.56;100.00
23643;BME280;11998;55.788;37.572;2023-01-15T02:39:54;99686.41;;;-1.51;100.00
23643;BME280;11998;55.788;37.572;2023-01-15T02:40:58;99684.66;;;-1.52;100.00
23643;BME280;11998;55.788;37.572;2023-01-15T02:42:03;99694.94;;;-1.55;100.00
23643;BME280;11998;55.788;37.572;2023-01-15T02:43:05;99690.47;;;-1.60;100.00
23643;BME280;11998;55.788;37.572;2023-01-15T02:44:07;99700.22;;;-1.52;100.00
23643;BME280;11998;55.788;37.572;2023-01-15T02:45:11;99687.91;;;-1.59;100.00
23643;BME280;11998;55.788;37.572;2023-01-15T02:46:14;99685.56;;;-1.50;100.00
23643;BME280;11998;55.788;37.572;2023-01-15T02:47:18;99676.84;;;-1.52;100.00
23643;BME280;11998;55.788;37.572;2023-01-15T02:48:23;99682.00;;;-1.53;100.00
23643;BME280;11998;55.788;37.572;2023-01-15T02:49:24;99681.47;;;-1.41;100.00
23643;BME280;11998;55.788;37.572;2023-01-15T02:50:29;99691.19;;;-1.36;100.00
23643;BME280;11998;55.788;37.572;2023-01-15T02:51:37;99690.03;;;-1.45;100.00
23643;BME280;11998;55.788;37.572;2023-01-15T02:52:44;99690.03;;;-1.45;100.00
23643;BME280;11998;55.788;37.572;2023-01-15T02:53:48;99689.59;;;-1.31;100.00
23643;BME280;11998;55.788;37.572;2023-01-15T02:55:02;99709.22;;;-1.40;100.00
23643;BME280;11998;55.788;37.572;2023-01-15T02:56:08;99704.91;;;-1.40;100.00
23643;BME280;11998;55.788;37.572;2023-01-15T02:57:10;99682.50;;;-1.36;100.00
23643;BME280;11998;55.788;37.572;2023-01-15T02:58:15;99685.13;;;-1.36;100.00
23643;BME280;11998;55.788;37.572;2023-01-15T02:59:40;99684.00;;;-1.44;100.00
23643;BME280;11998;55.788;37.572;2023-01-15T03:00:46;99690.75;;;-1.50;100.00
23643;BME280;11998;55.788;37.572;2023-01-15T03:02:04;99716.00;;;-1.45;100.00
23643;BME280;11998;55.788;37.572;2023-01-15T03:04:14;99700.22;;;-1.52;100.00
23643;BME280;11998;55.788;37.572;2023-01-15T03:05:26;99696.72;;;-1.54;100.00
23643;BME280;11998;55.788;37.572;2023-01-15T03:06:51;99700.03;;;-1.59;100.00
23643;BME280;11998;55.788;37.572;2023-01-15T03:07:56;99700.22;;;-1.52;100.00
23643;BME280;11998;55.788;37.572;2023-01-15T03:08:59;99696.72;;;-1.54;100.00
23643;BME280;11998;55.788;37.572;2023-01-15T03:10:00;99695.75;;;-1.57;100.00
23643;BME280;11998;55.788;37.572;2023-01-15T03:11:08;99697.53;;;-1.55;100.00
23643;BME280;11998;55.788;37.572;2023-01-15T03:13:21;99705.25;;;-1.58;100.00
23643;BME280;11998;55.788;37.572;2023-01-15T03:14:41;99697.66;;;-1.50;100.00
23643;BME280;11998;55.788;37.572;2023-01-15T03:15:54;99694.31;;;-1.48;100.00
23643;BME280;11998;55.788;37.572;2023-01-15T03:17:21;99698.75;;;-1.43;100.00
23643;BME280;11998;55.788;37.572;2023-01-15T03:18:23;99700.13;;;-1.55;100.00
23643;BME280;11998;55.788;37.572;2023-01-15T03:20:37;99698.56;;;-1.50;100.00
23643;BME280;11998;55.788;37.572;2023-01-15T03:21:52;99712.50;;;-1.48;100.00
23643;BME280;11998;55.788;37.572;2023-01-15T03:23:06;99698.38;;;-1.56;100.00
23643;BME280;11998;55.788;37.572;2023-01-15T03:24:09;99696.78;;;-1.51;100.00
23643;BME280;11998;55.788;37.572;2023-01-15T03:25:24;99696.78;;;-1.51;100.00
23643;BME280;11998;55.788;37.572;2023-01-15T03:26:27;99703.97;;;-1.42;100.00
23643;BME280;11998;55.788;37.572;2023-01-15T03:27:28;99698.56;;;-1.50;100.00
23643;BME280;11998;55.788;37.572;2023-01-15T03:28:32;99708.94;;;-1.50;100.00
23643;BME280;11998;55.788;37.572;2023-01-15T03:29:40;99696.06;;;-1.46;100.00
23643;BME280;11998;55.788;37.572;2023-01-15T03:30:42;99703.06;;;-1.44;100.00
23643;BME280;11998;55.788;37.572;2023-01-15T03:31:42;99700.50;;;-1.42;100.00
23643;BME280;11998;55.788;37.572;2023-01-15T03:32:44;99696.31;;;-1.37;100.00
23643;BME280;11998;55.788;37.572;2023-01-15T03:33:45;99717.09;;;-1.37;100.00
23643;BME280;11998;55.788;37.572;2023-01-15T03:34:49;99702.47;;;-1.35;100.00
23643;BME280;11998;55.788;37.572;2023-01-15T03:35:54;99703.16;;;-1.41;100.00
23643;BME280;11998;55.788;37.572;2023-01-15T03:36:58;99696.06;;;-1.46;100.00
23643;BME280;11998;55.788;37.572;2023-01-15T03:37:58;99712.50;;;-1.48;100.00
23643;BME280;11998;55.788;37.572;2023-01-15T03:38:59;99704.47;;;-1.55;100.00
23643;BME280;11998;55.788;37.572;2023-01-15T03:39:59;99700.34;;;-1.49;100.00
23643;BME280;11998;55.788;37.572;2023-01-15T03:45:23;99700.22;;;-1.52;100.00
23643;BME280;11998;55.788;37.572;2023-01-15T03:50:48;99717.56;;;-1.51;100.00
23643;BME280;11998;55.788;37.572;2023-01-15T03:53:16;99704.47;;;-1.55;100.00
23643;BME280;11998;55.788;37.572;2023-01-15T03:56:17;99710.63;;;-1.52;100.00
23643;BME280;11998;55.788;37.572;2023-01-15T03:58:50;99713.44;;;-1.44;100.00
23643;BME280;11998;55.788;37.572;2023-01-15T03:59:53;99703.06;;;-1.44;100.00
23643;BME280;11998;55.788;37.572;2023-01-15T04:00:57;99702.75;;;-1.55;100.00
23643;BME280;11998;55.788;37.572;2023-01-15T04:02:03;99700.91;;;-1.59;100.00
23643;BME280;11998;55.788;37.572;2023-01-15T04:03:07;99698.47;;;-1.53;100.00
23643;BME280;11998;55.788;37.572;2023-01-15T04:04:12;99697.81;;;-1.45;100.00
23643;BME280;11998;55.788;37.572;2023-01-15T04:05:14;99710.84;;;-1.44;100.00
23643;BME280;11998;55.788;37.572;2023-01-15T04:06:16;99712.38;;;-1.51;100.00
23643;BME280;11998;55.788;37.572;2023-01-15T04:07:17;99709.56;;;-1.58;100.00
23643;BME280;11998;55.788;37.572;2023-01-15T04:08:18;99706.25;;;-1.53;100.00
23643;BME280;11998;55.788;37.572;2023-01-15T04:09:20;99707.19;;;-1.51;100.00
23643;BME280;11998;55.788;37.572;2023-01-15T04:10:21;99703.84;;;-1.46;100.00
23643;BME280;11998;55.788;37.572;2023-01-15T04:11:24;99707.09;;;-1.54;100.00
23643;BME280;11998;55.788;37.572;2023-01-15T04:12:24;99710.53;;;-1.55;100.00
23643;BME280;11998;55.788;37.572;2023-01-15T04:13:27;99708.06;;;-1.50;100.00
23643;BME280;11998;55.788;37.572;2023-01-15T04:14:29;99706.94;;;-1.60;100.00
23643;BME280;11998;55.788;37.572;2023-01-15T04:15:30;99714.84;;;-1.55;100.00
23643;BME280;11998;55.788;37.572;2023-01-15T04:16:31;99720.91;;;-1.55;100.00
23643;BME280;11998;55.788;37.572;2023-01-15T04:17:32;99702.69;;;-1.56;100.00
23643;BME280;11998;55.788;37.572;2023-01-15T04:18:32;99718.97;;;-1.62;100.00
23643;BME280;11998;55.788;37.572;2023-01-15T04:19:33;99716.47;;;-1.59;100.00
23643;BME280;11998;55.788;37.572;2023-01-15T04:20:33;99708.56;;;-1.62;100.00
23643;BME280;11998;55.788;37.572;2023-01-15T04:21:34;99713.97;;;-1.56;100.00
23643;BME280;11998;55.788;37.572;2023-01-15T04:22:34;99709.53;;;-1.60;100.00
23643;BME280;11998;55.788;37.572;2023-01-15T04:23:38;99710.25;;;-1.64;100.00
23643;BME280;11998;55.788;37.572;2023-01-15T04:24:38;99715.72;;;-1.55;100.00
23643;BME280;11998;55.788;37.572;2023-01-15T04:25:39;99709.56;;;-1.58;100.00
23643;BME280;11998;55.788;37.572;2023-01-15T04:26:40;99719.06;;;-1.59;100.00
23643;BME280;11998;55.788;37.572;2023-01-15T04:27:40;99711.91;;;-1.66;100.00
23643;BME280;11998;55.788;37.572;2023-01-15T04:28:41;99714.59;;;-1.63;100.00
23643;BME280;11998;55.788;37.572;2023-01-15T04:29:42;99715.66;;;-1.58;100.00
23643;BME280;11998;55.788;37.572;2023-01-15T04:30:42;99715.56;;;-1.61;100.00
23643;BME280;11998;55.788;37.572;2023-01-15T04:31:43;99712.97;;;-1.61;100.00
23643;BME280;11998;55.788;37.572;2023-01-15T04:32:47;99712.28;;;-1.54;100.00
23643;BME280;11998;55.788;37.572;2023-01-15T04:33:48;99703.34;;;-1.63;100.00
23643;BME280;11998;55.788;37.572;2023-01-15T04:34:49;99713.59;;;-1.68;100.00
23643;BME280;11998;55.788;37.572;2023-01-15T04:35:50;99709.38;;;-1.64;100.00
23643;BME280;11998;55.788;37.572;2023-01-15T04:36:50;99713.84;;;-1.60;100.00
23643;BME280;11998;55.788;37.572;2023-01-15T04:37:55;99723.50;;;-1.55;100.00
23643;BME280;11998;55.788;37.572;2023-01-15T04:38:55;99717.47;;;-1.54;100.00
23643;BME280;11998;55.788;37.572;2023-01-15T04:39:58;99720.91;;;-1.55;100.00
23643;BME280;11998;55.788;37.572;2023-01-15T04:41:02;99722.75;;;-1.51;100.00
23643;BME280;11998;55.788;37.572;2023-01-15T04:42:21;99722.75;;;-1.51;100.00
23643;BME280;11998;55.788;37.572;2023-01-15T04:43:40;99726.56;;;-1.68;100.00
23643;BME280;11998;55.788;37.572;2023-01-15T04:44:59;99721.69;;;-1.59;100.00
23643;BME280;11998;55.788;37.572;2023-01-15T04:46:00;99721.72;;;-1.57;100.00
23643;BME280;11998;55.788;37.572;2023-01-15T04:47:00;99729.34;;;-1.62;100.00
23643;BME280;11998;55.788;37.572;2023-01-15T04:48:03;99722.69;;;-1.54;100.00
23643;BME280;11998;55.788;37.572;2023-01-15T04:49:05;99722.31;;;-1.66;100.00
23643;BME280;11998;55.788;37.572;2023-01-15T04:50:06;99720.56;;;-1.67;100.00
23643;BME280;11998;55.788;37.572;2023-01-15T04:51:07;99715.72;;;-1.55;100.00
23643;BME280;11998;55.788;37.572;2023-01-15T04:52:07;99720.84;;;-1.58;100.00
23643;BME280;11998;55.788;37.572;2023-01-15T04:53:08;99716.22;;;-1.66;100.00
23643;BME280;11998;55.788;37.572;2023-01-15T04:54:10;99720.75;;;-1.61;100.00
23643;BME280;11998;55.788;37.572;2023-01-15T04:55:11;99718.91;;;-1.63;100.00
23643;BME280;11998;55.788;37.572;2023-01-15T04:56:12;99708.41;;;-1.68;100.00
23643;BME280;11998;55.788;37.572;2023-01-15T04:57:12;99715.56;;;-1.61;100.00
23643;BME280;11998;55.788;37.572;2023-01-15T04:58:13;99712.13;;;-1.60;100.00
23643;BME280;11998;55.788;37.572;2023-01-15T04:59:14;99717.13;;;-1.66;100.00
23643;BME280;11998;55.788;37.572;2023-01-15T05:00:15;99720.75;;;-1.61;100.00
23643;BME280;11998;55.788;37.572;2023-01-15T05:01:16;99701.81;;;-1.57;100.00
23643;BME280;11998;55.788;37.572;2023-01-15T05:02:16;99714.22;;;-1.75;100.00
23643;BME280;11998;55.788;37.572;2023-01-15T05:03:17;99704.22;;;-1.63;100.00
23643;BME280;11998;55.788;37.572;2023-01-15T05:04:18;99704.13;;;-1.66;100.00
23643;BME280;11998;55.788;37.572;2023-01-15T05:05:18;99697.41;;;-1.59;100.00
23643;BME280;11998;55.788;37.572;2023-01-15T05:06:19;99704.53;;;-1.52;100.00
23643;BME280;11998;55.788;37.572;2023-01-15T05:07:19;99708.84;;;-1.53;100.00
23643;BME280;11998;55.788;37.572;2023-01-15T05:08:20;99712.13;;;-1.60;100.00
23643;BME280;11998;55.788;37.572;2023-01-15T05:09:21;99704.53;;;-1.52;100.00
23643;BME280;11998;55.788;37.572;2023-01-15T05:10:21;99716.69;;;-1.51;100.00
23643;BME280;11998;55.788;37.572;2023-01-15T05:11:22;99706.25;;;-1.53;100.00
23643;BME280;11998;55.788;37.572;2023-01-15T05:12:23;99704.41;;;-1.57;100.00
23643;BME280;11998;55.788;37.572;2023-01-15T05:13:23;99702.75;;;-1.55;100.00
23643;BME280;11998;55.788;37.572;2023-01-15T05:14:24;99705.34;;;-1.55;100.00
23643;BME280;11998;55.788;37.572;2023-01-15T05:15:30;99710.44;;;-1.58;100.00
23643;BME280;11998;55.788;37.572;2023-01-15T05:16:30;99711.25;;;-1.60;100.00
23643;BME280;11998;55.788;37.572;2023-01-15T05:17:32;99706.72;;;-1.66;100.00
23643;BME280;11998;55.788;37.572;2023-01-15T05:18:32;99701.44;;;-1.69;100.00
23643;BME280;11998;55.788;37.572;2023-01-15T05:19:33;99697.63;;;-1.80;100.00
23643;BME280;11998;55.788;37.572;2023-01-15T05:20:36;99702.19;;;-1.73;100.00
23643;BME280;11998;55.788;37.572;2023-01-15T05:21:40;99708.31;;;-1.71;100.00
23643;BME280;11998;55.788;37.572;2023-01-15T05:22:41;99710.16;;;-1.67;100.00
23643;BME280;11998;55.788;37.572;2023-01-15T05:23:42;99708.03;;;-1.80;100.00
23643;BME280;11998;55.788;37.572;2023-01-15T05:24:42;99712.28;;;-1.82;100.00
23643;BME280;11998;55.788;37.572;2023-01-15T05:25:43;99706.34;;;-1.78;100.00
23643;BME280;11998;55.788;37.572;2023-01-15T05:26:43;99703.00;;;-1.74;100.00
23643;BME280;11998;55.788;37.572;2023-01-15T05:27:44;99699.78;;;-1.67;100.00
23643;BME280;11998;55.788;37.572;2023-01-15T05:28:44;99697.13;;;-1.68;100.00
23643;BME280;11998;55.788;37.572;2023-01-15T05:29:45;99702.91;;;-1.77;100.00
23643;BME280;11998;55.788;37.572;2023-01-15T05:30:47;99703.28;;;-1.65;100.00
23643;BME280;11998;55.788;37.572;2023-01-15T05:31:47;99704.97;;;-1.67;100.00
23643;BME280;11998;55.788;37.572;2023-01-15T05:32:48;99698.72;;;-1.73;100.00
23643;BME280;11998;55.788;37.572;2023-01-15T05:33:48;99690.28;;;-1.66;100.00
23643;BME280;11998;55.788;37.572;2023-01-15T05:34:49;99693.94;;;-1.60;100.00
23643;BME280;11998;55.788;37.572;2023-01-15T05:35:49;99680.97;;;-1.60;100.00
23643;BME280;11998;55.788;37.572;2023-01-15T05:36:50;99697.25;;;-1.64;100.00
23643;BME280;11998;55.788;37.572;2023-01-15T05:37:50;99691.94;;;-1.68;100.00
23643;BME280;11998;55.788;37.572;2023-01-15T05:38:52;99707.59;;;-1.65;100.00
23643;BME280;11998;55.788;37.572;2023-01-15T05:39:53;99699.81;;;-1.65;100.00
23643;BME280;11998;55.788;37.572;2023-01-15T05:40:53;99696.19;;;-1.72;100.00
23643;BME280;11998;55.788;37.572;2023-01-15T05:41:54;99691.91;;;-1.70;100.00
23643;BME280;11998;55.788;37.572;2023-01-15T05:42:54;99699.78;;;-1.67;100.00
23643;BME280;11998;55.788;37.572;2023-01-15T05:43:55;99686.03;;;-1.63;100.00
23643;BME280;11998;55.788;37.572;2023-01-15T05:44:56;99689.09;;;-1.76;100.00
23643;BME280;11998;55.788;37.572;2023-01-15T05:46:00;99693.69;;;-1.67;100.00
23643;BME280;11998;55.788;37.572;2023-01-15T05:47:01;99689.59;;;-1.61;100.00
23643;BME280;11998;55.788;37.572;2023-01-15T05:48:05;99690.50;;;-1.59;100.00
23643;BME280;11998;55.788;37.572;2023-01-15T05:49:09;99696.25;;;-1.69;100.00
23643;BME280;11998;55.788;37.572;2023-01-15T05:50:10;99691.84;;;-1.71;100.00
23643;BME280;11998;55.788;37.572;2023-01-15T05:51:11;99692.53;;;-1.77;100.00
23643;BME280;11998;55.788;37.572;2023-01-15T05:52:11;99696.94;;;-1.74;100.00
23643;BME280;11998;55.788;37.572;2023-01-15T05:53:11;99693.63;;;-1.70;100.00
23643;BME280;11998;55.788;37.572;2023-01-15T05:54:20;99679.09;;;-1.64;100.00